Time;durP1;ratioP1;P1;durP2;ratioP2;P2;SDS_P1;SDS_P2;PMS_P1;PMS_P2;Temp;Humidity;BMP_temperature;BMP_pressure;BME280_temperature;BME280_humidity;BME280_pressure;Samples;Min_cycle;Max_cycle;Signal;HPM_P1;HPM_P2
2021/07/01 00:00:39;;;;;;;0.30;0.30;;;24.20;62.60;;;;;;5217320;28;20494;-59
2021/07/01 00:03:22;;;;;;;0.30;0.25;;;24.20;62.60;;;;;;5234378;27;20564;-61
2021/07/01 00:06:05;;;;;;;0.90;0.60;;;24.20;62.50;;;;;;5195871;28;20555;-58
2021/07/01 00:08:49;;;;;;;1.20;0.52;;;24.10;62.50;;;;;;5197514;28;20538;-59
2021/07/01 00:11:33;;;;;;;1.52;0.30;;;24.10;62.40;;;;;;5241011;27;21003;-61
2021/07/01 00:14:18;;;;;;;0.50;0.40;;;24.20;62.40;;;;;;5255640;27;20554;-58
2021/07/01 00:17:02;;;;;;;0.40;0.30;;;24.10;62.30;;;;;;5203793;28;20507;-58
2021/07/01 00:19:45;;;;;;;0.73;0.35;;;24.10;62.30;;;;;;5219585;28;20494;-59
2021/07/01 00:22:29;;;;;;;1.13;0.30;;;24.10;62.30;;;;;;5212742;28;20530;-59
2021/07/01 00:25:14;;;;;;;2.70;0.45;;;24.10;62.30;;;;;;5200938;28;20509;-59
2021/07/01 00:27:59;;;;;;;0.68;0.30;;;24.10;62.20;;;;;;5199754;28;20496;-58
2021/07/01 00:30:42;;;;;;;1.60;0.40;;;24.10;62.20;;;;;;5228136;27;20534;-58
2021/07/01 00:33:25;;;;;;;0.55;0.30;;;24.40;61.40;;;;;;5241194;27;20489;-58
2021/07/01 00:36:08;;;;;;;0.43;0.38;;;24.30;61.50;;;;;;5214377;28;20491;-59
2021/07/01 00:38:51;;;;;;;1.92;0.30;;;24.30;61.70;;;;;;5225321;27;20493;-58
2021/07/01 00:41:35;;;;;;;0.50;0.20;;;24.20;62.20;;;;;;5198731;28;21062;-59
2021/07/01 00:44:18;;;;;;;0.45;0.22;;;24.20;61.80;;;;;;5193256;28;20490;-60
2021/07/01 00:47:02;;;;;;;1.35;0.35;;;24.10;61.80;;;;;;5211892;28;20518;-58
2021/07/01 00:49:45;;;;;;;2.55;0.40;;;24.20;61.90;;;;;;5213504;28;20513;-58
2021/07/01 00:52:27;;;;;;;0.88;0.30;;;24.10;61.80;;;;;;5202285;28;20494;-59
2021/07/01 00:55:12;;;;;;;1.85;0.30;;;24.10;61.80;;;;;;5202557;28;20598;-60
2021/07/01 00:57:58;;;;;;;0.47;0.30;;;24.10;61.80;;;;;;5213609;28;21491;-61
2021/07/01 01:01:01;;;;;;;2.38;0.38;;;24.10;61.80;;;;;;5213934;28;20513;-61
2021/07/01 01:03:45;;;;;;;1.10;0.57;;;24.10;61.80;;;;;;5193906;28;20610;-61
2021/07/01 01:06:29;;;;;;;1.00;0.30;;;24.00;61.70;;;;;;5204254;28;20521;-58
2021/07/01 01:09:13;;;;;;;1.15;0.30;;;24.00;61.70;;;;;;5216691;28;20451;-58
2021/07/01 01:11:56;;;;;;;0.60;0.40;;;24.00;61.70;;;;;;5255400;27;20492;-58
2021/07/01 01:14:39;;;;;;;0.95;0.40;;;24.00;61.70;;;;;;5198752;28;20610;-61
2021/07/01 01:17:23;;;;;;;0.63;0.30;;;24.00;61.60;;;;;;5215014;28;20502;-58
2021/07/01 01:20:07;;;;;;;0.30;0.30;;;24.00;61.70;;;;;;5201889;28;20498;-59
2021/07/01 01:22:59;;;;;;;0.30;0.30;;;24.00;61.60;;;;;;5203739;28;20494;-59
2021/07/01 01:25:44;;;;;;;0.50;0.30;;;24.00;61.60;;;;;;5211981;28;21068;-61
2021/07/01 01:28:28;;;;;;;0.73;0.32;;;24.00;61.50;;;;;;5254436;27;21468;-58
2021/07/01 01:31:11;;;;;;;3.63;0.40;;;24.00;61.50;;;;;;5205249;28;20538;-59
2021/07/01 01:33:56;;;;;;;0.70;0.30;;;24.00;61.50;;;;;;5253032;27;21896;-57
2021/07/01 01:36:39;;;;;;;0.68;0.30;;;24.00;61.50;;;;;;5209795;28;20501;-60
2021/07/01 01:39:22;;;;;;;1.60;0.35;;;24.00;61.40;;;;;;5211895;28;20872;-61
2021/07/01 01:42:18;;;;;;;2.17;0.60;;;23.90;61.30;;;;;;5242955;27;20556;-58
2021/07/01 01:45:01;;;;;;;0.35;0.32;;;23.90;61.30;;;;;;5199131;28;20499;-58
2021/07/01 01:47:48;;;;;;;0.30;0.30;;;23.90;61.40;;;;;;5210795;28;20507;-61
2021/07/01 01:50:32;;;;;;;2.22;0.40;;;23.90;61.30;;;;;;5202399;28;20500;-61
2021/07/01 01:53:16;;;;;;;0.50;0.45;;;23.90;61.30;;;;;;5214029;28;20504;-59
2021/07/01 01:55:59;;;;;;;1.70;0.55;;;23.90;61.20;;;;;;5201939;28;20542;-57
2021/07/01 01:58:47;;;;;;;0.50;0.50;;;23.90;61.20;;;;;;5202248;28;20514;-59
2021/07/01 02:01:49;;;;;;;1.33;0.60;;;23.90;61.20;;;;;;5209847;28;20508;-61
2021/07/01 02:04:42;;;;;;;0.80;0.30;;;23.90;61.20;;;;;;5239076;27;20443;-58
2021/07/01 02:07:26;;;;;;;1.38;0.30;;;23.90;61.20;;;;;;5208634;28;20506;-60
2021/07/01 02:10:25;;;;;;;1.20;0.45;;;23.90;61.20;;;;;;5242852;27;20492;-61
2021/07/01 02:13:11;;;;;;;1.52;0.57;;;23.90;61.20;;;;;;5196376;28;20511;-58
2021/07/01 02:16:14;;;;;;;2.95;0.38;;;23.90;61.20;;;;;;5213014;28;21876;-60
2021/07/01 02:18:57;;;;;;;1.25;0.40;;;23.90;61.20;;;;;;5244071;27;20505;-59
2021/07/01 02:21:40;;;;;;;0.98;0.40;;;23.90;61.20;;;;;;5240993;27;20577;-61
2021/07/01 02:24:23;;;;;;;1.58;0.30;;;23.90;61.20;;;;;;5250353;27;20415;-59
2021/07/01 02:27:06;;;;;;;0.82;0.32;;;23.90;61.20;;;;;;5153375;28;21048;-59
2021/07/01 02:29:52;;;;;;;1.50;0.40;;;23.90;61.10;;;;;;5212199;27;20420;-59
2021/07/01 02:32:43;;;;;;;0.52;0.45;;;23.90;61.10;;;;;;5200396;28;20555;-59
2021/07/01 02:35:45;;;;;;;2.58;0.40;;;23.90;61.10;;;;;;5212242;28;20136;-61
2021/07/01 02:38:54;;;;;;;0.65;0.30;;;23.80;61.10;;;;;;5231541;27;20413;-59
2021/07/01 02:41:37;;;;;;;0.93;0.40;;;23.80;61.10;;;;;;5229739;27;20510;-61
2021/07/01 02:44:20;;;;;;;0.95;0.30;;;23.80;61.00;;;;;;5198332;28;20511;-59
2021/07/01 02:47:23;;;;;;;0.93;0.40;;;23.80;61.10;;;;;;5199468;28;20420;-57
2021/07/01 02:50:12;;;;;;;0.50;0.40;;;23.80;61.10;;;;;;5201416;28;20502;-59
2021/07/01 02:52:56;;;;;;;0.57;0.40;;;23.80;61.00;;;;;;5215427;28;20507;-61
2021/07/01 02:55:41;;;;;;;0.63;0.40;;;23.80;61.00;;;;;;5259820;27;20522;-61
2021/07/01 02:58:24;;;;;;;1.35;0.30;;;23.80;61.00;;;;;;5260514;27;20511;-59
2021/07/01 03:01:29;;;;;;;0.77;0.30;;;23.80;61.10;;;;;;5254248;27;20543;-59
2021/07/01 03:04:18;;;;;;;1.75;0.30;;;23.80;61.00;;;;;;5229801;27;21512;-58
2021/07/01 03:07:01;;;;;;;0.68;0.50;;;23.80;61.00;;;;;;5219557;28;20510;-58
2021/07/01 03:09:46;;;;;;;0.38;0.35;;;23.80;61.00;;;;;;5204065;28;20509;-58
2021/07/01 03:12:31;;;;;;;1.75;0.30;;;23.80;61.00;;;;;;5216353;27;21021;-59
2021/07/01 03:15:15;;;;;;;0.50;0.40;;;23.80;61.00;;;;;;5199015;28;20507;-61
2021/07/01 03:17:59;;;;;;;0.70;0.45;;;23.80;60.90;;;;;;5219055;28;20647;-61
2021/07/01 03:21:02;;;;;;;0.85;0.50;;;23.80;61.00;;;;;;5240179;27;20588;-61
2021/07/01 03:23:53;;;;;;;0.32;0.32;;;23.80;61.00;;;;;;5216745;27;20510;-58
2021/07/01 03:26:36;;;;;;;2.50;0.40;;;23.80;60.90;;;;;;5249236;27;20496;-61
2021/07/01 03:29:20;;;;;;;2.17;0.63;;;23.80;61.60;;;;;;5253883;27;20837;-59
2021/07/01 03:32:02;;;;;;;3.22;0.60;;;23.80;60.90;;;;;;5234648;27;20515;-57
2021/07/01 03:34:47;;;;;;;0.52;0.45;;;23.80;60.90;;;;;;5217161;28;20519;-59
2021/07/01 03:37:36;;;;;;;1.35;0.60;;;23.80;61.00;;;;;;5203586;28;21006;-61
2021/07/01 03:40:38;;;;;;;1.27;0.50;;;23.80;60.90;;;;;;5275536;27;20142;-61
2021/07/01 03:43:22;;;;;;;0.80;0.55;;;23.80;60.90;;;;;;5248640;27;21072;-58
2021/07/01 03:46:09;;;;;;;1.42;0.68;;;23.80;60.90;;;;;;5195578;28;20495;-59
2021/07/01 03:48:52;;;;;;;1.67;0.70;;;23.80;61.00;;;;;;5175609;28;21108;-59
2021/07/01 03:51:56;;;;;;;1.70;0.50;;;23.80;60.80;;;;;;5197211;28;20418;-58
2021/07/01 03:55:04;;;;;;;2.25;0.40;;;23.80;60.90;;;;;;5217236;28;20492;-58
2021/07/01 03:57:48;;;;;;;0.75;0.57;;;23.80;60.80;;;;;;5208479;28;20553;-59
2021/07/01 04:00:32;;;;;;;1.20;0.45;;;23.80;60.90;;;;;;5222407;27;20426;-59
2021/07/01 04:03:18;;;;;;;0.50;0.50;;;23.80;60.90;;;;;;5232354;28;21549;-61
2021/07/01 04:06:19;;;;;;;2.35;0.43;;;23.80;60.80;;;;;;5242077;27;20492;-58
2021/07/01 04:09:05;;;;;;;0.98;0.60;;;23.80;60.90;;;;;;5209958;28;20531;-58
2021/07/01 04:11:53;;;;;;;1.88;0.57;;;23.80;60.90;;;;;;5232494;27;20445;-59
2021/07/01 04:14:36;;;;;;;0.93;0.60;;;23.80;61.00;;;;;;5216871;28;20483;-58
2021/07/01 04:17:38;;;;;;;1.17;0.50;;;23.90;61.10;;;;;;5235126;27;20510;-59
2021/07/01 04:20:42;;;;;;;1.67;0.50;;;23.80;61.00;;;;;;5193541;28;20545;-61
2021/07/01 04:23:45;;;;;;;0.77;0.50;;;23.80;61.10;;;;;;5217245;27;20045;-60
2021/07/01 04:26:43;;;;;;;0.80;0.60;;;23.90;61.20;;;;;;5220487;27;20545;-61
2021/07/01 04:29:38;;;;;;;0.82;0.52;;;23.80;61.10;;;;;;5189575;28;20492;-61
2021/07/01 04:32:21;;;;;;;1.75;0.50;;;23.90;61.20;;;;;;5183588;28;20915;-61
2021/07/01 04:35:07;;;;;;;0.73;0.40;;;23.90;61.30;;;;;;5215759;27;20436;-61
2021/07/01 04:37:51;;;;;;;0.85;0.47;;;23.80;61.20;;;;;;5213532;28;20410;-59
2021/07/01 04:40:34;;;;;;;3.17;0.90;;;23.90;61.30;;;;;;5253229;27;20893;-59
2021/07/01 04:43:17;;;;;;;3.58;0.70;;;23.90;61.40;;;;;;5232739;27;20413;-63
2021/07/01 04:46:00;;;;;;;3.05;0.80;;;23.90;61.40;;;;;;5204468;28;20517;-59
2021/07/01 04:48:45;;;;;;;1.13;0.50;;;23.90;61.30;;;;;;5183475;28;20423;-61
2021/07/01 04:51:28;;;;;;;3.72;0.70;;;23.90;61.40;;;;;;5258352;27;20856;-62
2021/07/01 04:54:49;;;;;;;3.72;0.65;;;23.90;61.40;;;;;;5223490;27;20497;-59
2021/07/01 04:58:03;;;;;;;8.20;0.95;;;23.90;61.40;;;;;;5211885;27;20559;-61
2021/07/01 05:00:49;;;;;;;15.10;1.00;;;23.90;61.50;;;;;;5231089;27;20435;-59
2021/07/01 05:04:10;;;;;;;20.65;1.83;;;23.90;61.50;;;;;;5242534;27;20506;-62
2021/07/01 05:06:57;;;;;;;3.80;1.02;;;23.90;61.40;;;;;;5255246;27;20994;-60
2021/07/01 05:09:41;;;;;;;9.90;1.70;;;23.90;61.40;;;;;;5238260;27;20525;-59
2021/07/01 05:12:44;;;;;;;5.63;1.27;;;23.90;61.40;;;;;;5227802;27;20569;-60
2021/07/01 05:15:30;;;;;;;17.92;2.17;;;23.90;61.30;;;;;;5212365;28;21423;-60
2021/07/01 05:18:21;;;;;;;9.95;1.52;;;23.90;61.30;;;;;;5215834;28;20493;-61
2021/07/01 05:21:24;;;;;;;13.35;1.77;;;23.90;61.40;;;;;;5279703;27;20436;-59
2021/07/01 05:24:27;;;;;;;14.02;1.73;;;24.00;61.60;;;;;;5197098;28;20152;-61
2021/07/01 05:27:29;;;;;;;14.55;1.60;;;24.00;61.60;;;;;;5187544;28;20176;-61
2021/07/01 05:30:36;;;;;;;27.73;1.77;;;24.00;61.70;;;;;;5265551;27;20505;-61
2021/07/01 05:33:38;;;;;;;10.70;1.45;;;24.00;61.80;;;;;;5226912;27;20820;-59
2021/07/01 05:36:24;;;;;;;6.40;1.00;;;23.90;61.70;;;;;;5264202;27;20167;-59
2021/07/01 05:39:12;;;;;;;7.68;1.20;;;23.90;61.70;;;;;;5214950;27;20482;-60
2021/07/01 05:41:58;;;;;;;6.75;1.30;;;23.90;61.70;;;;;;5235245;27;21148;-60
2021/07/01 05:44:41;;;;;;;7.95;1.17;;;23.90;61.70;;;;;;5204873;28;21026;-61
2021/07/01 05:47:24;;;;;;;15.73;1.20;;;23.90;62.30;;;;;;5188775;28;20499;-61
2021/07/01 05:50:09;;;;;;;6.20;1.20;;;23.90;61.70;;;;;;5248547;27;20483;-58
2021/07/01 05:52:58;;;;;;;7.63;1.35;;;23.90;61.60;;;;;;5256779;27;20533;-59
2021/07/01 05:55:41;;;;;;;7.30;1.33;;;23.90;61.60;;;;;;5190204;28;20621;-59
2021/07/01 05:58:24;;;;;;;8.50;2.17;;;23.90;61.70;;;;;;5238383;27;20537;-57
2021/07/01 06:01:07;;;;;;;8.80;1.38;;;23.90;61.60;;;;;;5240981;27;20503;-61
2021/07/01 06:03:50;;;;;;;7.43;1.33;;;23.90;61.60;;;;;;5245090;27;21017;-59
2021/07/01 06:06:55;;;;;;;7.75;1.33;;;23.90;61.60;;;;;;5210673;28;20956;-60
2021/07/01 06:09:47;;;;;;;4.45;1.35;;;24.00;61.60;;;;;;5207855;27;20455;-60
2021/07/01 06:12:32;;;;;;;8.57;1.52;;;23.90;61.50;;;;;;5215666;28;20427;-59
2021/07/01 06:15:16;;;;;;;5.07;1.38;;;23.90;61.50;;;;;;5209972;28;20438;-58
2021/07/01 06:18:00;;;;;;;10.90;1.35;;;24.00;61.60;;;;;;5206783;28;20467;-59
2021/07/01 06:20:44;;;;;;;7.85;1.20;;;23.90;61.50;;;;;;5233330;27;20854;-58
2021/07/01 06:23:27;;;;;;;6.70;1.58;;;23.90;61.50;;;;;;5214129;28;20833;-59
2021/07/01 06:26:10;;;;;;;6.00;1.40;;;24.00;61.50;;;;;;5221405;27;20514;-59
2021/07/01 06:28:55;;;;;;;3.67;1.10;;;23.90;61.40;;;;;;5202310;28;20500;-61
2021/07/01 06:31:39;;;;;;;5.72;1.35;;;23.90;61.50;;;;;;5256233;27;21003;-59
2021/07/01 06:34:23;;;;;;;4.45;1.10;;;23.90;61.50;;;;;;5200754;28;20450;-59
2021/07/01 06:37:07;;;;;;;3.65;1.42;;;23.90;61.50;;;;;;5233805;27;20510;-61
2021/07/01 06:40:10;;;;;;;4.03;1.15;;;23.90;62.10;;;;;;5211515;28;20223;-61
2021/07/01 06:43:14;;;;;;;4.88;1.10;;;23.90;61.50;;;;;;5261254;27;20491;-61
2021/07/01 06:46:17;;;;;;;6.95;1.45;;;23.90;61.50;;;;;;5226448;28;20502;-62
2021/07/01 06:49:32;;;;;;;3.90;1.25;;;23.90;61.40;;;;;;5260178;27;20157;-58
2021/07/01 06:52:35;;;;;;;4.78;1.58;;;23.90;61.50;;;;;;5247168;27;20231;-58
2021/07/01 06:55:39;;;;;;;3.65;1.10;;;23.90;61.40;;;;;;5256749;28;20465;-59
2021/07/01 06:58:42;;;;;;;6.63;1.45;;;23.90;61.40;;;;;;5172393;28;21113;-59
2021/07/01 07:01:27;;;;;;;5.05;1.10;;;23.90;61.40;;;;;;5212714;28;26208;-60
2021/07/01 07:04:32;;;;;;;4.32;1.73;;;23.90;61.40;;;;;;5199695;28;20519;-58
2021/07/01 07:07:16;;;;;;;3.85;1.00;;;24.00;61.50;;;;;;5201649;28;20498;-58
2021/07/01 07:10:04;;;;;;;2.17;1.38;;;23.90;61.40;;;;;;5200375;28;20626;-59
2021/07/01 07:12:53;;;;;;;10.45;2.40;;;23.90;61.50;;;;;;5214270;28;20498;-61
2021/07/01 07:15:39;;;;;;;4.88;1.42;;;23.90;61.40;;;;;;5202374;28;20605;-59
2021/07/01 07:18:24;;;;;;;2.75;1.15;;;23.90;61.40;;;;;;5201156;28;20507;-59
2021/07/01 07:21:16;;;;;;;3.97;1.15;;;23.90;61.40;;;;;;5262501;27;20837;-59
2021/07/01 07:24:01;;;;;;;1.85;1.00;;;23.90;61.40;;;;;;5204449;28;20537;-58
2021/07/01 07:26:51;;;;;;;2.92;1.02;;;23.90;61.40;;;;;;5227672;27;20512;-62
2021/07/01 07:29:43;;;;;;;4.00;1.27;;;23.90;61.30;;;;;;5178127;28;20517;-57
2021/07/01 07:32:29;;;;;;;3.33;1.15;;;24.00;61.40;;;;;;5199447;28;20458;-60
2021/07/01 07:35:14;;;;;;;5.63;1.17;;;23.90;61.40;;;;;;5214836;28;20493;-58
2021/07/01 07:37:59;;;;;;;2.83;1.10;;;23.90;61.40;;;;;;5206118;28;20511;-60
2021/07/01 07:40:41;;;;;;;1.58;0.80;;;24.00;62.00;;;;;;5200937;28;20549;-60
2021/07/01 07:43:27;;;;;;;5.10;1.42;;;23.90;61.30;;;;;;5198206;28;20414;-58
2021/07/01 07:46:11;;;;;;;3.20;0.90;;;24.00;61.40;;;;;;5208713;28;20527;-58
2021/07/01 07:48:54;;;;;;;2.40;0.90;;;24.00;61.40;;;;;;5197173;28;20775;-61
2021/07/01 07:51:38;;;;;;;4.30;0.93;;;23.90;61.40;;;;;;5241308;27;20492;-61
2021/07/01 07:54:28;;;;;;;2.42;1.20;;;23.90;61.40;;;;;;5258220;27;21110;-61
2021/07/01 07:57:12;;;;;;;3.47;1.05;;;23.90;61.40;;;;;;5220540;27;21203;-60
2021/07/01 07:59:58;;;;;;;2.50;0.90;;;23.90;61.40;;;;;;5237644;28;20523;-60
2021/07/01 08:02:48;;;;;;;3.15;0.90;;;23.90;62.00;;;;;;5272380;27;20546;-58
2021/07/01 08:05:32;;;;;;;4.20;1.40;;;23.90;61.40;;;;;;5246540;27;20452;-57
2021/07/01 08:08:16;;;;;;;2.55;1.02;;;23.90;61.30;;;;;;5237661;27;20427;-59
2021/07/01 08:11:02;;;;;;;2.67;0.88;;;23.90;61.30;;;;;;5203858;28;20491;-59
2021/07/01 08:13:48;;;;;;;2.58;1.00;;;23.90;61.30;;;;;;5265578;27;20432;-59
2021/07/01 08:16:31;;;;;;;1.70;0.70;;;23.90;61.30;;;;;;5236137;28;21007;-59
2021/07/01 08:19:14;;;;;;;0.90;0.70;;;23.90;61.30;;;;;;5256103;27;20852;-59
2021/07/01 08:21:57;;;;;;;1.20;1.00;;;23.90;61.30;;;;;;5225068;28;20486;-59
2021/07/01 08:24:40;;;;;;;1.80;0.80;;;23.90;61.30;;;;;;5195214;28;20487;-57
2021/07/01 08:27:27;;;;;;;0.80;0.60;;;23.90;61.20;;;;;;5244390;27;20535;-60
2021/07/01 08:30:13;;;;;;;1.13;0.90;;;23.90;61.20;;;;;;5274152;27;20523;-59
2021/07/01 08:33:00;;;;;;;2.95;0.90;;;23.90;61.20;;;;;;5227992;27;20485;-60
2021/07/01 08:35:43;;;;;;;1.52;0.90;;;23.90;61.20;;;;;;5187716;28;20573;-57
2021/07/01 08:38:26;;;;;;;1.13;0.80;;;23.90;61.20;;;;;;5187555;28;20527;-58
2021/07/01 08:41:15;;;;;;;2.42;1.33;;;23.90;61.20;;;;;;5264345;27;20996;-60
2021/07/01 08:44:16;;;;;;;2.38;0.60;;;23.90;61.20;;;;;;5199847;28;20516;-58
2021/07/01 08:47:10;;;;;;;0.90;0.70;;;23.90;61.10;;;;;;5193101;28;20408;-60
2021/07/01 08:49:59;;;;;;;1.05;0.77;;;23.90;61.10;;;;;;5215056;27;20501;-60
2021/07/01 08:53:10;;;;;;;1.33;1.00;;;23.90;61.10;;;;;;5257447;27;20490;-59
2021/07/01 08:55:54;;;;;;;1.85;0.80;;;23.90;61.10;;;;;;5234877;28;20427;-60
2021/07/01 08:58:46;;;;;;;1.35;0.80;;;23.90;61.10;;;;;;5208911;28;20546;-59
2021/07/01 09:01:29;;;;;;;1.65;0.60;;;23.90;61.10;;;;;;5145668;28;20428;-58
2021/07/01 09:04:13;;;;;;;2.88;0.90;;;23.90;61.20;;;;;;5251590;27;20496;-60
2021/07/01 09:07:04;;;;;;;1.85;0.60;;;23.90;61.20;;;;;;5251185;27;20558;-58
2021/07/01 09:09:57;;;;;;;3.08;1.05;;;23.90;61.10;;;;;;5206786;28;21009;-60
2021/07/01 09:12:47;;;;;;;1.45;0.68;;;23.90;61.20;;;;;;5212362;27;20523;-61
2021/07/01 09:15:31;;;;;;;0.73;0.63;;;23.90;61.20;;;;;;5260035;27;20475;-59
2021/07/01 09:18:14;;;;;;;0.70;0.63;;;23.90;61.20;;;;;;5201884;28;20419;-60
2021/07/01 09:20:58;;;;;;;2.95;0.73;;;23.90;61.10;;;;;;5201480;28;20512;-59
2021/07/01 09:23:46;;;;;;;1.45;0.88;;;23.90;61.10;;;;;;5214962;28;20521;-59
2021/07/01 09:26:30;;;;;;;2.35;0.60;;;23.90;61.00;;;;;;5242136;27;20493;-58
2021/07/01 09:29:15;;;;;;;2.22;1.10;;;23.90;61.00;;;;;;5233735;27;20529;-61
2021/07/01 09:31:59;;;;;;;1.02;0.60;;;23.90;61.00;;;;;;5205760;28;20416;-61
2021/07/01 09:34:45;;;;;;;1.23;0.90;;;24.00;60.90;;;;;;5206078;28;20427;-56
2021/07/01 09:37:39;;;;;;;2.03;0.98;;;24.00;60.90;;;;;;5225420;27;20500;-57
2021/07/01 09:40:23;;;;;;;0.80;0.75;;;24.00;60.80;;;;;;5243648;27;21114;-60
2021/07/01 09:43:08;;;;;;;4.22;1.10;;;24.00;60.90;;;;;;5198975;28;20506;-58
2021/07/01 09:45:53;;;;;;;1.30;0.70;;;24.00;60.80;;;;;;5264319;27;20523;-59
2021/07/01 09:48:45;;;;;;;0.80;0.80;;;24.00;60.80;;;;;;5214102;28;20549;-59
2021/07/01 09:51:29;;;;;;;1.90;1.05;;;24.00;60.90;;;;;;5235289;27;20575;-60
2021/07/01 09:54:16;;;;;;;1.58;1.08;;;24.00;60.90;;;;;;5241647;27;20501;-59
2021/07/01 09:57:28;;;;;;;0.70;0.70;;;24.00;60.80;;;;;;5237181;27;20527;-60
2021/07/01 10:00:13;;;;;;;1.17;0.85;;;24.00;60.90;;;;;;5215675;28;20518;-59
2021/07/01 10:03:09;;;;;;;0.80;0.75;;;24.00;60.90;;;;;;5234979;28;20486;-60
2021/07/01 10:05:53;;;;;;;1.67;1.02;;;24.00;61.00;;;;;;5278820;27;20485;-59
2021/07/01 10:08:40;;;;;;;2.58;1.10;;;24.00;61.00;;;;;;5200262;28;20427;-61
2021/07/01 10:11:32;;;;;;;1.67;1.23;;;24.00;61.00;;;;;;5214171;28;20439;-61
2021/07/01 10:14:15;;;;;;;1.33;0.80;;;24.00;61.00;;;;;;5220993;28;20436;-58
2021/07/01 10:17:17;;;;;;;1.75;1.13;;;24.00;60.90;;;;;;5216944;27;21212;-59
2021/07/01 10:20:08;;;;;;;1.45;1.27;;;24.00;60.90;;;;;;5222814;27;20164;-58
2021/07/01 10:22:51;;;;;;;1.77;1.27;;;24.00;60.80;;;;;;5246438;27;20493;-60
2021/07/01 10:25:34;;;;;;;2.55;1.67;;;24.00;60.90;;;;;;5199890;28;20451;-60
2021/07/01 10:28:19;;;;;;;1.75;1.45;;;24.00;60.90;;;;;;5202146;28;20491;-61
2021/07/01 10:31:09;;;;;;;2.30;1.45;;;24.00;61.00;;;;;;5226921;28;20438;-59
2021/07/01 10:33:59;;;;;;;2.80;1.55;;;24.00;61.20;;;;;;5239763;27;20763;-59
2021/07/01 10:36:44;;;;;;;2.78;1.77;;;23.90;61.20;;;;;;5250486;27;20554;-58
2021/07/01 10:39:28;;;;;;;2.10;1.63;;;23.90;61.30;;;;;;5193918;28;20494;-60
2021/07/01 10:42:13;;;;;;;1.73;1.30;;;23.90;61.30;;;;;;5213516;28;20443;-59
2021/07/01 10:45:13;;;;;;;1.70;1.40;;;23.90;61.30;;;;;;5239029;27;20439;-58
2021/07/01 10:48:16;;;;;;;2.15;1.60;;;23.80;61.30;;;;;;5212581;28;20459;-59
2021/07/01 10:51:13;;;;;;;1.80;1.33;;;23.80;61.30;;;;;;5223826;28;20509;-60
2021/07/01 10:54:17;;;;;;;3.05;1.20;;;23.80;62.00;;;;;;5266375;27;20484;-60
2021/07/01 10:57:10;;;;;;;1.33;1.20;;;23.90;61.30;;;;;;5212996;28;20566;-58
2021/07/01 10:59:57;;;;;;;2.67;1.75;;;23.90;61.30;;;;;;5234617;27;20517;-58
2021/07/01 11:02:49;;;;;;;2.17;1.67;;;23.90;61.30;;;;;;5258122;27;21443;-60
2021/07/01 11:05:46;;;;;;;1.65;1.55;;;23.90;61.30;;;;;;5210204;28;20474;-59
2021/07/01 11:08:35;;;;;;;1.58;1.38;;;23.90;61.40;;;;;;5194145;28;22724;-61
2021/07/01 11:11:21;;;;;;;3.03;1.40;;;23.90;61.40;;;;;;5219443;28;20475;-61
2021/07/01 11:14:10;;;;;;;4.35;1.30;;;23.90;61.40;;;;;;5263523;27;20421;-58
2021/07/01 11:17:04;;;;;;;2.03;1.50;;;23.90;61.40;;;;;;5193627;28;21012;-60
2021/07/01 11:19:48;;;;;;;2.22;1.45;;;24.20;60.70;;;;;;5193850;28;20498;-62
2021/07/01 11:22:49;;;;;;;2.60;1.60;;;24.20;60.80;;;;;;5249264;27;20867;-61
2021/07/01 11:25:42;;;;;;;2.67;1.33;;;24.10;60.90;;;;;;5236498;27;21088;-58
2021/07/01 11:28:29;;;;;;;8.30;2.13;;;24.10;61.00;;;;;;5227843;27;20501;-60
2021/07/01 11:31:12;;;;;;;4.20;1.58;;;24.00;61.00;;;;;;5197013;28;20482;-59
2021/07/01 11:34:01;;;;;;;4.63;1.67;;;24.00;61.10;;;;;;5239681;27;20488;-59
2021/07/01 11:36:54;;;;;;;5.05;1.90;;;24.00;61.20;;;;;;5237285;28;20536;-60
2021/07/01 11:39:37;;;;;;;4.85;1.55;;;24.00;61.20;;;;;;5261304;27;20232;-60
2021/07/01 11:42:20;;;;;;;3.58;1.48;;;24.00;61.20;;;;;;5193436;28;21097;-59
2021/07/01 11:45:04;;;;;;;4.53;1.60;;;24.00;61.40;;;;;;5197295;28;20494;-61
2021/07/01 11:47:50;;;;;;;6.20;2.03;;;24.00;61.30;;;;;;5252300;27;20552;-59
2021/07/01 11:50:34;;;;;;;14.32;1.88;;;24.00;61.40;;;;;;5247633;27;20413;-60
2021/07/01 11:53:18;;;;;;;6.53;2.15;;;24.00;61.70;;;;;;5208267;28;20512;-60
2021/07/01 11:56:02;;;;;;;8.30;1.67;;;24.10;61.90;;;;;;5252839;27;20421;-61
2021/07/01 11:58:47;;;;;;;9.88;1.98;;;24.10;62.00;;;;;;5238985;27;20980;-61
2021/07/01 12:01:31;;;;;;;8.15;2.47;;;24.10;62.10;;;;;;5199380;28;20488;-59
2021/07/01 12:04:17;;;;;;;5.68;1.80;;;24.10;62.10;;;;;;5199313;28;20507;-61
2021/07/01 12:07:11;;;;;;;8.50;1.85;;;24.20;62.10;;;;;;5213952;28;20519;-60
2021/07/01 12:09:55;;;;;;;7.03;2.03;;;24.20;62.10;;;;;;5279464;27;20992;-61
2021/07/01 12:12:39;;;;;;;12.63;2.17;;;24.20;62.20;;;;;;5227574;28;21199;-59
2021/07/01 12:15:23;;;;;;;4.63;2.03;;;24.30;62.30;;;;;;5219002;28;21331;-61
2021/07/01 12:18:08;;;;;;;5.75;1.40;;;24.20;62.30;;;;;;5201125;28;20494;-57
2021/07/01 12:20:55;;;;;;;9.32;1.92;;;24.30;62.40;;;;;;5261725;27;20512;-55
2021/07/01 12:23:50;;;;;;;10.80;2.22;;;24.30;62.50;;;;;;5245077;27;20524;-55
2021/07/01 12:26:42;;;;;;;8.77;1.80;;;24.30;62.50;;;;;;5242957;27;20493;-58
2021/07/01 12:29:47;;;;;;;5.00;1.60;;;24.30;62.70;;;;;;5257634;27;21128;-57
2021/07/01 12:32:31;;;;;;;4.93;2.00;;;24.20;62.70;;;;;;5237680;27;20513;-57
2021/07/01 12:35:39;;;;;;;5.53;1.80;;;24.30;62.70;;;;;;5197039;28;20542;-58
2021/07/01 12:38:21;;;;;;;5.95;1.92;;;24.30;62.80;;;;;;5243776;27;20526;-60
2021/07/01 12:41:10;;;;;;;6.40;1.98;;;24.30;62.90;;;;;;5203993;28;20485;-59
2021/07/01 12:43:54;;;;;;;4.60;1.67;;;24.30;62.90;;;;;;5262132;27;20492;-61
2021/07/01 12:46:41;;;;;;;7.60;2.10;;;24.30;62.90;;;;;;5198730;28;20546;-59
2021/07/01 12:49:32;;;;;;;8.05;2.60;;;24.30;62.90;;;;;;5197798;28;20506;-57
2021/07/01 12:52:19;;;;;;;6.47;1.85;;;24.30;62.90;;;;;;5278991;27;20590;-58
2021/07/01 12:55:04;;;;;;;6.00;1.70;;;24.30;62.90;;;;;;5235235;27;20540;-60
2021/07/01 12:57:48;;;;;;;6.82;1.98;;;24.30;62.90;;;;;;5189957;28;20546;-60
2021/07/01 13:00:32;;;;;;;3.95;1.70;;;24.40;62.90;;;;;;5183701;28;20518;-58
2021/07/01 13:03:16;;;;;;;5.93;1.70;;;24.40;62.90;;;;;;5244683;27;20494;-61
2021/07/01 13:06:01;;;;;;;5.43;1.45;;;24.40;62.90;;;;;;5234356;28;20460;-59
2021/07/01 13:08:45;;;;;;;4.55;1.85;;;24.40;62.80;;;;;;5189772;28;21032;-58
2021/07/01 13:11:40;;;;;;;4.05;1.52;;;24.40;62.70;;;;;;5209901;28;20462;-58
2021/07/01 13:14:29;;;;;;;9.73;1.80;;;24.40;62.60;;;;;;5263724;27;21142;-58
2021/07/01 13:17:16;;;;;;;5.55;1.60;;;24.40;62.60;;;;;;5249554;27;20531;-57
2021/07/01 13:20:03;;;;;;;4.47;1.30;;;24.30;62.50;;;;;;5219879;28;20509;-59
2021/07/01 13:22:48;;;;;;;2.88;1.45;;;24.30;62.50;;;;;;5214962;28;20507;-59
2021/07/01 13:25:33;;;;;;;7.85;2.30;;;24.30;62.50;;;;;;5203272;28;20495;-59
2021/07/01 13:28:16;;;;;;;3.97;1.45;;;24.30;62.50;;;;;;5250744;27;20482;-60
2021/07/01 13:30:59;;;;;;;3.60;1.50;;;24.30;62.50;;;;;;5159958;28;20519;-59
2021/07/01 13:33:42;;;;;;;5.70;2.00;;;24.30;62.50;;;;;;5199211;28;21056;-58
2021/07/01 13:36:28;;;;;;;3.55;1.60;;;24.30;62.50;;;;;;5252868;27;20482;-59
2021/07/01 13:39:30;;;;;;;5.13;1.67;;;24.30;62.50;;;;;;5239316;27;20489;-59
2021/07/01 13:42:34;;;;;;;2.70;1.48;;;24.20;62.40;;;;;;5261745;27;20783;-60
2021/07/01 13:45:26;;;;;;;5.75;1.80;;;24.20;62.40;;;;;;5238180;27;20516;-60
2021/07/01 13:48:28;;;;;;;2.80;1.27;;;24.20;62.50;;;;;;5204084;28;20506;-58
2021/07/01 13:51:10;;;;;;;4.95;1.60;;;24.20;62.50;;;;;;5237541;28;20578;-58
2021/07/01 13:53:53;;;;;;;6.10;1.45;;;24.20;62.50;;;;;;5215207;28;20511;-57
2021/07/01 13:56:40;;;;;;;4.22;1.50;;;24.20;62.50;;;;;;5194303;28;20546;-61
2021/07/01 13:59:25;;;;;;;2.67;1.35;;;24.20;63.20;;;;;;5207000;28;20460;-60
2021/07/01 14:02:18;;;;;;;4.85;1.35;;;24.20;62.60;;;;;;5209352;28;21002;-59
2021/07/01 14:05:01;;;;;;;4.45;1.60;;;24.20;62.50;;;;;;5224023;27;20434;-59
2021/07/01 14:07:44;;;;;;;4.93;1.52;;;24.20;62.50;;;;;;5221315;27;20694;-60
2021/07/01 14:10:30;;;;;;;3.03;1.40;;;24.20;62.50;;;;;;5199874;28;20493;-59
2021/07/01 14:13:14;;;;;;;4.70;1.50;;;24.20;62.50;;;;;;5232769;27;20938;-60
2021/07/01 14:15:59;;;;;;;6.53;1.77;;;24.20;62.60;;;;;;5236375;27;20492;-58
2021/07/01 14:18:49;;;;;;;5.43;1.75;;;24.20;62.70;;;;;;5228566;27;22106;-58
2021/07/01 14:21:49;;;;;;;7.05;1.92;;;24.20;62.80;;;;;;5244614;27;20496;-59
2021/07/01 14:24:32;;;;;;;5.80;1.83;;;24.20;63.00;;;;;;5201627;28;20499;-59
2021/07/01 14:27:14;;;;;;;5.13;1.98;;;24.20;63.00;;;;;;5191341;28;20412;-58
2021/07/01 14:29:57;;;;;;;3.20;1.58;;;24.20;63.10;;;;;;5240406;27;20508;-59
2021/07/01 14:32:43;;;;;;;5.47;1.58;;;24.30;63.10;;;;;;5279938;27;21005;-58
2021/07/01 14:35:28;;;;;;;4.35;1.73;;;24.30;63.10;;;;;;5192818;28;20967;-58